Time;durP1;ratioP1;P1;durP2;ratioP2;P2;SDS_P1;SDS_P2;PMS_P1;PMS_P2;Temp;Humidity;BMP_temperature;BMP_pressure;BME280_temperature;BME280_humidity;BME280_pressure;Samples;Min_cycle;Max_cycle;Signal;HPM_P1;HPM_P2
2022/12/12 00:01:48;;;;;;;15.35;9.07;;;;;8.80;100857.00;;;;5021251;28;20658;-73
2022/12/12 00:04:15;;;;;;;15.70;10.48;;;;;8.80;100853.00;;;;5017325;28;20216;-73
2022/12/12 00:06:44;;;;;;;13.50;9.10;;;;;8.80;100855.00;;;;5024195;28;20195;-73
2022/12/12 00:09:11;;;;;;;15.57;9.63;;;;;8.80;100859.00;;;;5018722;28;20235;-73
2022/12/12 00:11:38;;;;;;;12.73;9.02;;;;;8.80;100861.00;;;;5019761;28;20250;-74
2022/12/12 00:14:07;;;;;;;14.07;8.45;;;;;8.80;100866.00;;;;5012913;28;20197;-73
2022/12/12 00:16:34;;;;;;;13.35;8.90;;;;;8.80;100864.00;;;;5020344;28;20212;-73
2022/12/12 00:19:02;;;;;;;15.45;9.30;;;;;8.80;100864.00;;;;5018122;28;20232;-73
2022/12/12 00:21:30;;;;;;;14.00;9.05;;;;;8.80;100869.00;;;;5022641;28;20201;-74
2022/12/12 00:23:58;;;;;;;13.10;9.02;;;;;8.80;100875.00;;;;5009566;28;21016;-74
2022/12/12 00:26:27;;;;;;;13.50;9.25;;;;;8.80;100869.00;;;;5017941;28;20197;-73
2022/12/12 00:28:55;;;;;;;14.00;9.63;;;;;8.80;100878.00;;;;5017657;28;20216;-74
2022/12/12 00:31:24;;;;;;;13.73;9.38;;;;;8.80;100876.00;;;;5025089;28;20201;-74
2022/12/12 00:33:51;;;;;;;14.57;8.90;;;;;8.80;100875.00;;;;5011692;28;20667;-74
2022/12/12 00:36:22;;;;;;;15.18;10.07;;;;;8.80;100872.00;;;;5016897;28;20251;-73
2022/12/12 00:38:50;;;;;;;14.98;9.23;;;;;8.80;100863.00;;;;5016611;28;20228;-74
2022/12/12 00:41:17;;;;;;;15.00;9.63;;;;;8.70;100875.00;;;;5022698;28;20211;-74
2022/12/12 00:43:45;;;;;;;14.70;9.80;;;;;8.70;100857.00;;;;5008940;28;20200;-74
2022/12/12 00:46:14;;;;;;;13.70;9.00;;;;;8.70;100859.00;;;;5013575;28;20669;-74
2022/12/12 00:48:43;;;;;;;14.55;9.80;;;;;8.70;100860.00;;;;5014402;28;20565;-74
2022/12/12 00:51:16;;;;;;;13.32;9.25;;;;;8.70;100853.00;;;;5018122;28;20201;-74
2022/12/12 00:53:43;;;;;;;14.95;9.48;;;;;8.70;100860.00;;;;5016357;28;20640;-73
2022/12/12 00:56:11;;;;;;;13.45;9.10;;;;;8.70;100857.00;;;;5007894;28;20593;-73
2022/12/12 00:58:38;;;;;;;12.55;8.45;;;;;8.70;100857.00;;;;5014159;28;20224;-73
2022/12/12 01:01:10;;;;;;;15.18;10.10;;;;;8.60;100858.00;;;;5026578;28;20208;-74
2022/12/12 01:03:40;;;;;;;13.68;8.80;;;;;8.60;100851.00;;;;5008127;28;20573;-74
2022/12/12 01:06:09;;;;;;;13.68;9.15;;;;;8.60;100860.00;;;;5007304;28;20205;-74
2022/12/12 01:08:37;;;;;;;14.70;9.63;;;;;8.60;100867.00;;;;5008459;28;20200;-73
2022/12/12 01:11:04;;;;;;;16.33;10.20;;;;;8.60;100875.00;;;;5008534;28;20208;-73
2022/12/12 01:13:32;;;;;;;17.92;9.70;;;;;8.60;100869.00;;;;5014086;28;20196;-74
2022/12/12 01:15:59;;;;;;;15.55;9.90;;;;;8.60;100864.00;;;;5026857;28;20204;-73
2022/12/12 01:18:26;;;;;;;13.65;9.43;;;;;8.60;100867.00;;;;5018515;28;20228;-73
2022/12/12 01:20:54;;;;;;;15.00;9.75;;;;;8.60;100865.00;;;;5018829;28;20243;-73
2022/12/12 01:23:22;;;;;;;14.93;10.25;;;;;8.50;100869.00;;;;5019932;28;20200;-73
2022/12/12 01:25:50;;;;;;;14.25;9.13;;;;;8.50;100875.00;;;;5008679;28;20211;-73
2022/12/12 01:28:17;;;;;;;14.27;9.00;;;;;8.50;100881.00;;;;5013493;28;20193;-74
2022/12/12 01:30:44;;;;;;;14.85;9.90;;;;;8.50;100880.00;;;;5019016;28;20200;-73
2022/12/12 01:33:12;;;;;;;13.50;9.82;;;;;8.40;100886.00;;;;5014780;28;20193;-73
2022/12/12 01:35:39;;;;;;;13.88;9.95;;;;;8.40;100893.00;;;;5021702;28;20250;-73
2022/12/12 01:38:06;;;;;;;16.35;9.98;;;;;8.40;100893.00;;;;5020045;28;20192;-73
2022/12/12 01:40:35;;;;;;;14.20;9.70;;;;;8.40;100896.00;;;;5021770;28;20219;-73
2022/12/12 01:43:02;;;;;;;15.73;9.88;;;;;8.30;100898.00;;;;5006829;28;20200;-74
2022/12/12 01:46:18;;;;;;;15.98;10.27;;;;;8.20;100899.00;;;;5005641;28;20374;-74
2022/12/12 01:48:52;;;;;;;14.18;8.93;;;;;8.30;100900.00;;;;5024545;28;20568;-74
2022/12/12 01:51:21;;;;;;;14.10;8.95;;;;;8.30;100904.00;;;;5014880;28;20189;-74
2022/12/12 01:53:51;;;;;;;14.10;9.93;;;;;8.30;100906.00;;;;5017215;28;20746;-74
2022/12/12 01:56:21;;;;;;;15.85;9.00;;;;;8.30;100910.00;;;;5017769;28;20200;-74
2022/12/12 01:58:51;;;;;;;13.88;9.30;;;;;8.30;100912.00;;;;5008285;28;20220;-74
2022/12/12 02:01:18;;;;;;;14.90;9.27;;;;;8.30;100910.00;;;;5023734;28;20204;-74
2022/12/12 02:03:48;;;;;;;16.92;9.70;;;;;8.30;100908.00;;;;5011281;28;20204;-75
2022/12/12 02:06:19;;;;;;;13.90;9.60;;;;;8.30;100911.00;;;;5011143;28;20200;-74
2022/12/12 02:08:48;;;;;;;16.75;10.13;;;;;8.20;100911.00;;;;5022738;28;20212;-75
2022/12/12 02:11:15;;;;;;;16.63;10.13;;;;;8.20;100906.00;;;;5022106;28;20208;-75
2022/12/12 02:13:44;;;;;;;12.82;8.88;;;;;8.20;100904.00;;;;5020037;28;20196;-75
2022/12/12 02:16:22;;;;;;;14.45;9.88;;;;;8.20;100915.00;;;;5011983;28;20215;-74
2022/12/12 02:18:57;;;;;;;15.65;9.85;;;;;8.20;100909.00;;;;5008027;28;20224;-75
2022/12/12 02:21:31;;;;;;;14.95;9.57;;;;;8.20;100910.00;;;;5009298;28;20199;-75
2022/12/12 02:24:23;;;;;;;14.23;9.05;;;;;8.20;100914.00;;;;5023759;28;20213;-75
2022/12/12 02:27:29;;;;;;;13.88;8.70;;;;;8.10;100916.00;;;;5016647;28;20197;-74
2022/12/12 02:30:14;;;;;;;13.57;8.82;;;;;8.10;100908.00;;;;5016411;28;20575;-75
2022/12/12 02:33:10;;;;;;;15.75;10.13;;;;;8.10;100908.00;;;;5009174;28;20196;-74
2022/12/12 02:35:48;;;;;;;15.50;9.82;;;;;8.10;100912.00;;;;5010899;28;20671;-74
2022/12/12 02:38:25;;;;;;;15.77;9.68;;;;;8.00;100912.00;;;;5007025;28;20185;-74
2022/12/12 02:41:03;;;;;;;14.27;9.02;;;;;8.00;100919.00;;;;5007392;28;20562;-75
2022/12/12 02:43:39;;;;;;;14.35;9.02;;;;;8.00;100919.00;;;;5007768;28;20216;-74
2022/12/12 02:46:13;;;;;;;12.52;8.82;;;;;8.00;100920.00;;;;5008694;28;20678;-75
2022/12/12 02:48:48;;;;;;;12.88;8.30;;;;;8.00;100920.00;;;;5014020;28;20208;-74
2022/12/12 02:51:17;;;;;;;13.77;9.30;;;;;8.00;100918.00;;;;5007748;28;20199;-75
2022/12/12 02:53:44;;;;;;;15.38;9.57;;;;;8.00;100919.00;;;;5008459;28;20193;-75
2022/12/12 02:56:45;;;;;;;14.30;10.10;;;;;7.90;100920.00;;;;5024053;28;20413;-75
2022/12/12 02:59:16;;;;;;;17.92;9.80;;;;;8.00;100917.00;;;;5010262;28;20229;-74
2022/12/12 03:01:58;;;;;;;13.60;9.10;;;;;7.90;100920.00;;;;5018188;28;20200;-74
2022/12/12 03:07:48;;;;;;;15.18;9.07;;;;;7.80;100921.00;;;;5024864;28;20207;-74
2022/12/12 03:10:30;;;;;;;15.70;9.10;;;;;7.80;100917.00;;;;5013993;28;20216;-74
2022/12/12 03:13:08;;;;;;;17.08;9.77;;;;;7.80;100915.00;;;;5026090;28;20200;-74
2022/12/12 03:15:47;;;;;;;12.20;8.48;;;;;7.80;100919.00;;;;5017616;28;20588;-75
2022/12/12 03:18:26;;;;;;;15.50;8.98;;;;;7.70;100923.00;;;;5010710;28;20193;-74
2022/12/12 03:21:01;;;;;;;14.50;9.45;;;;;7.70;100927.00;;;;5013069;28;20593;-74
2022/12/12 03:23:33;;;;;;;13.60;8.65;;;;;7.60;100915.00;;;;5018460;28;20293;-75
2022/12/12 03:26:06;;;;;;;14.02;8.93;;;;;7.60;100920.00;;;;5026084;28;20199;-75
2022/12/12 03:28:37;;;;;;;14.38;9.32;;;;;7.50;100916.00;;;;5012628;28;20197;-75
2022/12/12 03:31:08;;;;;;;13.60;8.57;;;;;7.50;100927.00;;;;5022791;28;20200;-74
2022/12/12 03:33:41;;;;;;;14.55;9.23;;;;;7.40;100928.00;;;;5016883;28;20197;-75
2022/12/12 03:36:15;;;;;;;13.60;9.27;;;;;7.40;100925.00;;;;5015916;28;20228;-74
2022/12/12 03:38:48;;;;;;;13.30;9.02;;;;;7.40;100921.00;;;;5026336;28;20188;-74
2022/12/12 03:41:20;;;;;;;17.60;9.52;;;;;7.30;100921.00;;;;5016704;28;20204;-74
2022/12/12 03:43:56;;;;;;;12.25;8.10;;;;;7.20;100915.00;;;;5011209;28;21028;-74
2022/12/12 03:46:28;;;;;;;14.55;8.77;;;;;7.20;100922.00;;;;5017610;28;20207;-74
2022/12/12 03:49:00;;;;;;;15.90;10.55;;;;;7.20;100925.00;;;;5018488;28;20197;-74
2022/12/12 03:51:32;;;;;;;14.50;9.05;;;;;7.10;100921.00;;;;5009887;28;20411;-75
2022/12/12 03:54:06;;;;;;;13.98;8.55;;;;;7.10;100920.00;;;;5012055;28;20208;-74
2022/12/12 03:56:40;;;;;;;14.82;9.20;;;;;7.10;100923.00;;;;5022581;28;20565;-75
2022/12/12 03:59:10;;;;;;;16.27;8.98;;;;;7.10;100926.00;;;;5020506;28;20430;-75
2022/12/12 04:01:44;;;;;;;12.23;8.73;;;;;7.00;100929.00;;;;5014727;28;20193;-74
2022/12/12 04:04:16;;;;;;;14.55;8.20;;;;;6.90;100931.00;;;;5015351;28;20208;-74
2022/12/12 04:06:50;;;;;;;13.27;9.02;;;;;6.90;100937.00;;;;5020723;28;20236;-75
2022/12/12 04:15:20;;;;;;;11.90;8.45;;;;;6.70;100935.00;;;;5009941;28;20254;-75
2022/12/12 04:17:58;;;;;;;11.43;8.15;;;;;6.70;100933.00;;;;5018455;28;20205;-74
2022/12/12 04:23:32;;;;;;;13.13;8.10;;;;;6.60;100932.00;;;;5019348;28;20628;-74
2022/12/12 04:29:02;;;;;;;12.00;8.00;;;;;6.60;100938.00;;;;5013780;28;20208;-74
2022/12/12 04:31:31;;;;;;;15.60;9.10;;;;;6.60;100934.00;;;;5008820;28;20196;-74
2022/12/12 04:34:03;;;;;;;13.45;8.98;;;;;6.60;100935.00;;;;5008264;28;20631;-74
2022/12/12 04:36:33;;;;;;;14.18;9.15;;;;;6.60;100935.00;;;;5009551;28;20232;-74
2022/12/12 04:39:04;;;;;;;14.27;8.90;;;;;6.50;100949.00;;;;5007586;28;20205;-74
2022/12/12 04:41:34;;;;;;;15.48;9.13;;;;;6.50;100943.00;;;;5014294;28;20267;-74
2022/12/12 04:44:06;;;;;;;16.42;10.00;;;;;6.50;100957.00;;;;5020425;28;21282;-74
2022/12/12 04:46:36;;;;;;;16.05;10.25;;;;;6.50;100954.00;;;;5023781;28;20570;-74
2022/12/12 04:49:07;;;;;;;15.18;9.10;;;;;6.40;100960.00;;;;5016536;28;20211;-75
2022/12/12 04:51:41;;;;;;;13.85;9.02;;;;;6.40;100948.00;;;;5009429;28;20197;-74
2022/12/12 04:54:13;;;;;;;14.05;9.10;;;;;6.40;100952.00;;;;5011763;28;20197;-74
2022/12/12 04:56:45;;;;;;;16.67;9.68;;;;;6.40;100940.00;;;;5020304;28;20655;-74
2022/12/12 04:59:13;;;;;;;13.70;8.73;;;;;6.40;100945.00;;;;5015537;28;20244;-74
2022/12/12 05:01:48;;;;;;;15.38;9.13;;;;;6.30;100946.00;;;;5015455;28;20204;-74
2022/12/12 05:04:23;;;;;;;14.10;8.77;;;;;6.30;100949.00;;;;5016250;28;20204;-74
2022/12/12 05:06:56;;;;;;;16.27;8.75;;;;;6.30;100946.00;;;;5019960;28;20187;-74
2022/12/12 05:09:25;;;;;;;13.05;7.68;;;;;6.30;100934.00;;;;5011635;28;21065;-74
2022/12/12 05:11:53;;;;;;;14.02;9.02;;;;;6.30;100940.00;;;;5022921;28;20275;-73
2022/12/12 05:14:20;;;;;;;13.98;9.20;;;;;6.30;100938.00;;;;5012497;28;20201;-74
2022/12/12 05:16:51;;;;;;;13.35;8.35;;;;;6.20;100933.00;;;;5015502;28;20205;-74
2022/12/12 05:19:18;;;;;;;14.77;9.25;;;;;6.20;100947.00;;;;5017966;28;20200;-74
2022/12/12 05:21:46;;;;;;;17.00;9.35;;;;;6.20;100943.00;;;;5019759;28;20200;-74
2022/12/12 05:24:13;;;;;;;14.43;9.13;;;;;6.20;100952.00;;;;5013957;28;20197;-74
2022/12/12 05:26:42;;;;;;;15.43;8.98;;;;;6.10;100943.00;;;;5014534;28;20204;-74
2022/12/12 05:29:09;;;;;;;16.63;9.68;;;;;6.10;100943.00;;;;5008724;28;20273;-74
2022/12/12 05:31:37;;;;;;;15.45;9.15;;;;;6.10;100935.00;;;;5016255;28;20196;-74
2022/12/12 05:34:05;;;;;;;15.73;9.27;;;;;6.10;100946.00;;;;5007947;28;20196;-74
2022/12/12 05:36:32;;;;;;;16.35;9.65;;;;;6.10;100937.00;;;;5016807;28;20229;-74
2022/12/12 05:39:00;;;;;;;12.85;8.52;;;;;6.10;100939.00;;;;5015224;28;20208;-74
2022/12/12 05:41:27;;;;;;;13.48;8.65;;;;;6.10;100942.00;;;;5015472;28;20224;-73
2022/12/12 05:43:56;;;;;;;14.80;8.52;;;;;6.00;100949.00;;;;5010311;28;20195;-73
2022/12/12 05:46:23;;;;;;;13.25;8.98;;;;;6.00;100946.00;;;;5011660;28;20208;-74
2022/12/12 05:48:50;;;;;;;14.75;9.15;;;;;6.00;100950.00;;;;5015512;28;20200;-74
2022/12/12 05:51:18;;;;;;;14.52;8.88;;;;;6.00;100956.00;;;;5012502;28;20212;-74
2022/12/12 05:53:46;;;;;;;14.05;9.05;;;;;6.00;100962.00;;;;5017173;28;20216;-74
2022/12/12 05:56:13;;;;;;;13.70;9.07;;;;;6.00;100953.00;;;;5008291;28;20196;-74
2022/12/12 05:58:42;;;;;;;13.85;8.75;;;;;6.00;100960.00;;;;5013657;28;20211;-74
2022/12/12 06:01:11;;;;;;;15.27;9.05;;;;;5.90;100961.00;;;;5011573;28;20225;-74
2022/12/12 06:03:38;;;;;;;15.52;9.45;;;;;6.00;100959.00;;;;5015303;28;20200;-74
2022/12/12 06:06:06;;;;;;;14.73;9.35;;;;;5.90;100971.00;;;;5010907;28;20204;-74
2022/12/12 06:08:33;;;;;;;13.90;9.27;;;;;5.90;100964.00;;;;5009403;28;20200;-74
2022/12/12 06:11:03;;;;;;;14.23;8.68;;;;;5.90;100966.00;;;;5011077;28;20232;-74
2022/12/12 06:13:31;;;;;;;14.43;8.77;;;;;5.90;100961.00;;;;5014777;28;20201;-74
2022/12/12 06:15:58;;;;;;;13.20;9.05;;;;;5.90;100963.00;;;;5009328;28;20220;-74
2022/12/12 06:18:27;;;;;;;16.90;10.27;;;;;5.80;100970.00;;;;5017204;28;20204;-74
2022/12/12 06:21:03;;;;;;;14.18;8.93;;;;;5.80;100969.00;;;;5007723;28;20228;-74
2022/12/12 06:23:30;;;;;;;13.98;8.52;;;;;5.80;100976.00;;;;5021690;28;20202;-74
2022/12/12 06:25:57;;;;;;;14.43;8.77;;;;;5.80;100971.00;;;;5013916;28;20204;-74
2022/12/12 06:28:25;;;;;;;13.93;7.93;;;;;5.80;100978.00;;;;5011582;28;20193;-74
2022/12/12 06:30:53;;;;;;;15.95;8.80;;;;;5.80;100972.00;;;;5022589;28;20207;-74
2022/12/12 06:33:20;;;;;;;13.82;8.07;;;;;5.80;100972.00;;;;5019186;28;20190;-73
2022/12/12 06:35:58;;;;;;;16.10;9.80;;;;;5.70;100976.00;;;;5015337;28;20707;-73
2022/12/12 06:38:25;;;;;;;16.45;9.88;;;;;5.70;100968.00;;;;5021586;28;20219;-74
2022/12/12 06:40:53;;;;;;;16.05;9.48;;;;;5.70;100974.00;;;;5023529;28;20239;-74
2022/12/12 06:43:22;;;;;;;15.38;9.75;;;;;5.70;100975.00;;;;5014700;28;20193;-71
2022/12/12 06:45:49;;;;;;;16.02;9.60;;;;;5.70;100970.00;;;;5013683;28;20994;-73
2022/12/12 06:48:17;;;;;;;16.45;10.48;;;;;5.70;100977.00;;;;5018259;28;20205;-74
2022/12/12 06:50:45;;;;;;;19.27;10.52;;;;;5.70;100983.00;;;;5015855;28;20197;-74
2022/12/12 06:53:13;;;;;;;15.63;9.57;;;;;5.70;100979.00;;;;5015242;28;20209;-74
2022/12/12 06:55:44;;;;;;;29.90;9.75;;;;;5.70;100985.00;;;;5015990;28;20215;-74
2022/12/12 06:58:11;;;;;;;15.65;9.05;;;;;5.70;100982.00;;;;5018738;28;20201;-75
2022/12/12 07:00:38;;;;;;;15.88;9.60;;;;;5.70;100981.00;;;;5023909;28;20220;-72
2022/12/12 07:03:06;;;;;;;17.95;9.77;;;;;5.70;100985.00;;;;5010643;28;20208;-73
2022/12/12 07:05:33;;;;;;;15.45;9.07;;;;;5.60;100992.00;;;;5012928;28;20568;-73
2022/12/12 07:08:01;;;;;;;15.90;9.90;;;;;5.60;100996.00;;;;5022232;28;20205;-73
2022/12/12 07:10:31;;;;;;;15.07;8.75;;;;;5.60;100996.00;;;;5013752;28;20302;-73
2022/12/12 07:12:58;;;;;;;29.27;18.95;;;;;5.50;100999.00;;;;5011209;28;20474;-72
2022/12/12 07:15:25;;;;;;;22.95;13.27;;;;;5.70;100998.00;;;;5017892;28;20192;-73
2022/12/12 07:17:53;;;;;;;17.27;10.63;;;;;5.70;101003.00;;;;5019678;28;20212;-72
2022/12/12 07:20:20;;;;;;;18.13;10.73;;;;;5.70;101008.00;;;;5024848;28;20378;-73
2022/12/12 07:22:48;;;;;;;18.50;9.90;;;;;5.60;101008.00;;;;5020996;28;20205;-73
2022/12/12 07:25:15;;;;;;;19.08;10.60;;;;;5.60;101008.00;;;;5013360;28;20244;-72
2022/12/12 07:27:44;;;;;;;17.55;10.35;;;;;5.60;101009.00;;;;5021120;28;20331;-72
2022/12/12 07:30:12;;;;;;;17.20;10.82;;;;;5.60;101012.00;;;;5024677;28;20197;-71
2022/12/12 07:32:39;;;;;;;16.90;9.77;;;;;5.60;101020.00;;;;5010175;28;20193;-71
2022/12/12 07:35:07;;;;;;;15.50;9.32;;;;;5.60;101029.00;;;;5008772;28;20239;-71
2022/12/12 07:37:35;;;;;;;16.55;9.43;;;;;5.60;101025.00;;;;5009886;28;20237;-72
2022/12/12 07:40:02;;;;;;;20.10;10.88;;;;;5.60;101031.00;;;;5009864;28;20196;-72
2022/12/12 07:42:29;;;;;;;17.00;9.80;;;;;5.60;101031.00;;;;5012244;28;20206;-73
2022/12/12 07:44:58;;;;;;;19.45;9.75;;;;;5.50;101028.00;;;;5014325;28;20207;-73
2022/12/12 07:47:25;;;;;;;16.83;9.43;;;;;5.50;101027.00;;;;5017617;28;20203;-72
2022/12/12 07:49:53;;;;;;;18.33;10.43;;;;;5.50;101034.00;;;;5015548;28;20694;-71
2022/12/12 07:52:20;;;;;;;16.02;9.52;;;;;5.50;101035.00;;;;5027865;28;20204;-72
2022/12/12 07:54:48;;;;;;;14.65;9.82;;;;;5.50;101032.00;;;;5024661;28;20247;-71
2022/12/12 07:57:15;;;;;;;18.00;9.48;;;;;5.50;101032.00;;;;5009819;28;20196;-71
2022/12/12 07:59:42;;;;;;;15.35;9.82;;;;;5.50;101036.00;;;;5022551;28;20203;-72
2022/12/12 08:02:11;;;;;;;15.77;9.10;;;;;5.40;101040.00;;;;5000080;28;20220;-72
2022/12/12 08:04:39;;;;;;;15.25;9.82;;;;;5.50;101038.00;;;;5028917;28;20583;-71
2022/12/12 08:07:06;;;;;;;16.33;9.80;;;;;5.40;101042.00;;;;5021836;28;20196;-71
2022/12/12 08:09:33;;;;;;;18.33;9.57;;;;;5.40;101041.00;;;;5016115;28;20822;-72
2022/12/12 08:12:00;;;;;;;17.17;10.45;;;;;5.40;101042.00;;;;5019086;28;20208;-71
2022/12/12 08:14:28;;;;;;;18.88;11.15;;;;;5.40;101043.00;;;;5016911;28;20201;-71
2022/12/12 08:16:55;;;;;;;18.98;10.30;;;;;5.40;101053.00;;;;5016386;28;20200;-73
2022/12/12 08:19:24;;;;;;;16.10;9.80;;;;;5.40;101056.00;;;;5016434;28;20204;-72
2022/12/12 08:21:51;;;;;;;18.08;10.93;;;;;5.40;101051.00;;;;5014268;28;20236;-72
2022/12/12 08:24:19;;;;;;;19.88;10.48;;;;;5.40;101056.00;;;;5016333;28;20193;-72
2022/12/12 08:26:46;;;;;;;19.75;11.63;;;;;5.50;101060.00;;;;5025099;28;20200;-72
2022/12/12 08:29:13;;;;;;;15.45;9.82;;;;;5.50;101063.00;;;;5011083;28;20208;-73
2022/12/12 08:31:41;;;;;;;17.38;10.02;;;;;5.50;101063.00;;;;5008590;28;20204;-73
2022/12/12 08:34:09;;;;;;;19.00;10.45;;;;;5.50;101064.00;;;;5019074;28;20205;-72
2022/12/12 08:36:38;;;;;;;18.65;10.93;;;;;5.50;101066.00;;;;5021376;28;20225;-72
2022/12/12 08:39:07;;;;;;;19.05;10.95;;;;;5.50;101062.00;;;;5013042;28;20204;-72
2022/12/12 08:41:36;;;;;;;17.50;11.07;;;;;5.50;101061.00;;;;5014976;28;20255;-73
2022/12/12 08:44:04;;;;;;;20.85;10.98;;;;;5.50;101060.00;;;;5020092;28;20553;-73
2022/12/12 08:46:31;;;;;;;17.95;11.25;;;;;5.50;101056.00;;;;5017533;28;20200;-72
2022/12/12 08:48:58;;;;;;;19.70;11.02;;;;;5.50;101065.00;;;;5015233;28;20220;-72
2022/12/12 08:51:26;;;;;;;18.75;11.57;;;;;5.50;101059.00;;;;5013237;28;20205;-72
2022/12/12 08:53:54;;;;;;;18.83;11.20;;;;;5.50;101066.00;;;;5014746;28;20196;-73
2022/12/12 08:56:23;;;;;;;19.40;10.13;;;;;5.60;101063.00;;;;5007379;28;20193;-72
2022/12/12 08:58:51;;;;;;;18.52;10.80;;;;;5.60;101063.00;;;;5008399;28;20197;-72
2022/12/12 09:01:21;;;;;;;19.75;10.18;;;;;5.60;101068.00;;;;5013788;28;20566;-72
2022/12/12 09:03:49;;;;;;;18.63;10.60;;;;;5.60;101070.00;;;;5013697;28;20193;-72
2022/12/12 09:06:17;;;;;;;16.25;10.25;;;;;5.60;101072.00;;;;5014449;28;20204;-72
2022/12/12 09:08:44;;;;;;;20.25;10.50;;;;;5.70;101070.00;;;;5014424;28;20588;-72
2022/12/12 09:11:14;;;;;;;19.15;10.70;;;;;5.70;101073.00;;;;5013969;28;20217;-74
2022/12/12 09:13:42;;;;;;;20.40;10.45;;;;;5.70;101070.00;;;;5015787;28;20203;-73
2022/12/12 09:16:10;;;;;;;17.75;10.02;;;;;5.70;101071.00;;;;5017622;28;20245;-72
2022/12/12 09:18:38;;;;;;;16.23;10.65;;;;;5.80;101073.00;;;;5018931;28;20666;-73
2022/12/12 09:21:06;;;;;;;16.27;9.80;;;;;5.80;101083.00;;;;5018720;28;20228;-72
2022/12/12 09:23:34;;;;;;;17.92;11.25;;;;;5.80;101082.00;;;;5015570;28;20208;-73
2022/12/12 09:26:05;;;;;;;18.15;10.80;;;;;5.80;101079.00;;;;5017268;28;20227;-72
2022/12/12 09:28:34;;;;;;;18.98;11.15;;;;;5.80;101069.00;;;;5012218;28;20196;-72
2022/12/12 09:31:03;;;;;;;15.77;9.77;;;;;5.90;101076.00;;;;5020152;28;20201;-72
2022/12/12 09:33:30;;;;;;;18.67;10.88;;;;;5.90;101077.00;;;;5014628;28;20204;-72
2022/12/12 09:35:59;;;;;;;17.05;10.52;;;;;5.90;101077.00;;;;5014306;28;20614;-72
2022/12/12 09:38:27;;;;;;;16.70;10.43;;;;;5.90;101081.00;;;;5016600;28;20201;-73
2022/12/12 09:40:56;;;;;;;19.17;11.35;;;;;5.90;101082.00;;;;5016481;28;20262;-72
2022/12/12 09:43:27;;;;;;;17.80;10.48;;;;;6.00;101076.00;;;;5016178;28;20228;-72
2022/12/12 09:45:56;;;;;;;17.60;10.95;;;;;6.00;101080.00;;;;5014550;28;20205;-73
2022/12/12 09:48:30;;;;;;;18.33;10.35;;;;;5.90;101076.00;;;;5013726;28;20205;-73
2022/12/12 09:50:58;;;;;;;19.05;10.45;;;;;6.00;101072.00;;;;5013987;28;20197;-73
2022/12/12 09:53:26;;;;;;;14.65;9.35;;;;;6.00;101080.00;;;;5015248;28;20205;-72
2022/12/12 09:56:01;;;;;;;17.02;9.32;;;;;6.00;101075.00;;;;5013031;28;20278;-73
2022/12/12 09:58:34;;;;;;;17.77;10.07;;;;;6.00;101062.00;;;;5019402;28;20203;-72
2022/12/12 10:01:12;;;;;;;17.00;10.30;;;;;6.10;101067.00;;;;5024195;28;20220;-74
2022/12/12 10:03:54;;;;;;;16.77;10.05;;;;;6.00;101074.00;;;;5016037;28;20196;-73
2022/12/12 10:06:22;;;;;;;15.57;10.13;;;;;6.10;101074.00;;;;5015262;28;20207;-73
2022/12/12 10:09:00;;;;;;;19.85;9.52;;;;;6.10;101068.00;;;;5027103;28;20212;-73
2022/12/12 10:11:50;;;;;;;15.20;9.35;;;;;6.20;101068.00;;;;5022242;28;20196;-73
2022/12/12 10:14:22;;;;;;;16.20;9.52;;;;;6.20;101065.00;;;;5024866;28;20287;-73
2022/12/12 10:16:51;;;;;;;16.02;9.32;;;;;6.20;101062.00;;;;5023772;28;20205;-73
2022/12/12 10:19:23;;;;;;;18.02;10.02;;;;;6.20;101058.00;;;;5022607;28;20201;-72
2022/12/12 10:21:54;;;;;;;17.05;10.55;;;;;6.30;101059.00;;;;5018226;28;20592;-73
2022/12/12 10:24:30;;;;;;;17.50;9.82;;;;;6.30;101051.00;;;;5020513;28;20199;-72
2022/12/12 10:26:59;;;;;;;16.38;9.88;;;;;6.40;101055.00;;;;5023589;28;20204;-72
2022/12/12 10:29:27;;;;;;;13.52;8.13;;;;;6.40;101063.00;;;;5021225;28;20200;-73
2022/12/12 10:32:05;;;;;;;14.68;9.30;;;;;6.40;101057.00;;;;5019026;28;20242;-73
2022/12/12 10:34:47;;;;;;;17.48;9.32;;;;;6.40;101054.00;;;;5021344;28;20215;-73
2022/12/12 10:37:34;;;;;;;14.85;8.70;;;;;6.40;101049.00;;;;5021274;28;20220;-74
2022/12/12 10:40:12;;;;;;;15.43;9.00;;;;;6.50;101045.00;;;;5023942;28;20192;-73
2022/12/12 10:42:47;;;;;;;15.35;10.43;;;;;6.50;101042.00;;;;5021933;28;20623;-74
2022/12/12 10:45:35;;;;;;;15.05;9.00;;;;;6.50;101039.00;;;;5021996;28;20565;-74
2022/12/12 10:48:05;;;;;;;17.77;10.00;;;;;6.60;101050.00;;;;5018858;28;20212;-73
2022/12/12 10:50:35;;;;;;;15.80;9.98;;;;;6.70;101049.00;;;;5019569;28;20212;-73
2022/12/12 10:53:04;;;;;;;17.70;9.13;;;;;6.70;101052.00;;;;5014686;28;20263;-73
2022/12/12 10:55:41;;;;;;;14.43;9.25;;;;;6.70;101057.00;;;;5014646;28;20197;-74
2022/12/12 10:58:08;;;;;;;15.93;9.88;;;;;6.70;101043.00;;;;5016122;28;20193;-73
2022/12/12 11:00:38;;;;;;;15.48;9.50;;;;;6.70;101043.00;;;;5021401;28;20215;-73
2022/12/12 11:03:23;;;;;;;18.55;10.77;;;;;6.70;101039.00;;;;5024720;28;20797;-73
2022/12/12 11:05:51;;;;;;;16.23;9.82;;;;;6.80;101039.00;;;;5024513;28;20197;-74
2022/12/12 11:08:22;;;;;;;16.85;10.48;;;;;6.80;101029.00;;;;5024239;28;20208;-73
2022/12/12 11:11:02;;;;;;;15.13;9.38;;;;;6.80;101027.00;;;;5023093;28;20227;-73
2022/12/12 11:13:31;;;;;;;15.10;9.55;;;;;6.90;101030.00;;;;5025861;28;20655;-73
2022/12/12 11:16:00;;;;;;;16.27;9.75;;;;;6.90;101026.00;;;;5024248;28;20196;-74
2022/12/12 11:18:29;;;;;;;15.70;9.23;;;;;6.90;101024.00;;;;5008459;28;20196;-73
2022/12/12 11:21:06;;;;;;;16.83;9.95;;;;;6.90;101021.00;;;;5019717;28;20200;-73
2022/12/12 11:23:35;;;;;;;15.77;9.25;;;;;7.00;101012.00;;;;5018179;28;20605;-73
2022/12/12 11:26:05;;;;;;;16.20;9.48;;;;;7.00;101022.00;;;;5019180;28;20683;-73
2022/12/12 11:28:36;;;;;;;15.70;8.77;;;;;7.00;101031.00;;;;5018148;28;20215;-73
2022/12/12 11:31:06;;;;;;;13.60;8.82;;;;;7.10;101037.00;;;;5016475;28;20643;-73
2022/12/12 11:33:42;;;;;;;15.00;9.73;;;;;7.10;101033.00;;;;5016052;28;20701;-73
2022/12/12 11:36:15;;;;;;;17.58;8.90;;;;;7.10;101033.00;;;;5015369;28;20228;-73
2022/12/12 11:38:48;;;;;;;15.40;8.30;;;;;7.10;101027.00;;;;5016790;28;20566;-73
2022/12/12 11:41:16;;;;;;;15.23;8.77;;;;;7.20;101033.00;;;;5018308;28;20247;-74
2022/12/12 11:43:56;;;;;;;15.10;9.18;;;;;7.10;101036.00;;;;5013253;28;20204;-74
2022/12/12 11:46:26;;;;;;;14.98;8.95;;;;;7.20;101029.00;;;;5010068;28;20457;-73
2022/12/12 11:49:00;;;;;;;15.95;9.43;;;;;7.30;101026.00;;;;5010013;28;20193;-74
2022/12/12 11:51:34;;;;;;;15.30;8.93;;;;;7.30;101022.00;;;;5021558;28;20191;-73
2022/12/12 11:54:04;;;;;;;14.35;9.35;;;;;7.40;101022.00;;;;5009368;28;20223;-74
2022/12/12 11:56:45;;;;;;;14.30;9.02;;;;;7.40;101017.00;;;;5009501;28;20216;-74
2022/12/12 11:59:37;;;;;;;15.77;8.80;;;;;7.50;101018.00;;;;5009263;28;20204;-74
2022/12/12 12:02:26;;;;;;;14.60;8.98;;;;;7.50;101012.00;;;;5013924;28;20221;-74
2022/12/12 12:05:03;;;;;;;17.67;9.00;;;;;7.60;101021.00;;;;5010665;28;20224;-74
2022/12/12 12:07:46;;;;;;;15.23;9.48;;;;;7.60;101020.00;;;;5021874;28;20188;-75
2022/12/12 12:10:21;;;;;;;14.48;8.98;;;;;7.70;101019.00;;;;5010140;28;20219;-75
2022/12/12 12:12:57;;;;;;;13.48;8.38;;;;;7.80;101018.00;;;;5014299;28;20204;-75
2022/12/12 12:15:32;;;;;;;12.07;8.02;;;;;7.80;101017.00;;;;5011364;28;20212;-75
2022/12/12 12:18:14;;;;;;;12.52;8.30;;;;;7.90;101020.00;;;;5010994;28;20224;-74
2022/12/12 12:21:05;;;;;;;16.38;9.13;;;;;7.90;101021.00;;;;5011139;28;21088;-74
2022/12/12 12:23:41;;;;;;;13.70;8.48;;;;;7.90;101022.00;;;;5011666;28;20286;-74
2022/12/12 12:26:14;;;;;;;15.00;8.82;;;;;8.00;101019.00;;;;5011271;28;20193;-74
2022/12/12 12:29:00;;;;;;;13.10;8.38;;;;;8.00;101013.00;;;;5020608;28;20201;-74
2022/12/12 12:31:36;;;;;;;12.48;7.90;;;;;8.00;101011.00;;;;5024518;28;20200;-74
2022/12/12 12:34:15;;;;;;;14.30;8.10;;;;;8.10;101014.00;;;;5014348;28;20291;-75
2022/12/12 12:36:54;;;;;;;12.60;8.35;;;;;8.10;101015.00;;;;5021358;28;20224;-75
2022/12/12 12:39:51;;;;;;;12.05;7.95;;;;;8.10;101016.00;;;;5024184;28;20193;-76
2022/12/12 12:42:29;;;;;;;13.60;8.25;;;;;8.20;101022.00;;;;5018988;28;20686;-75